Repentigny, Canada
Current Conditions -  °F | °C
As of 7:00 PM on Monday 22 Dec 2014 (Local Time) from CYHU Reporting Station
Overcast Overcast  
Wind Chill: -14°   Ceiling: 4000
Heat Index: -7°   Visibility: 9mi
Dew Point: -9°   Wind: 12mph
Humidity: 86%   Direction: 20°NNE
Pressure: 30.34"   Gusts: NA
Location:  45.73°N, 73.45°W
Report Text: CYHU 230000Z AUTO 02010KT 9SM OVC040 M07/M09 A3034 RMK SLP275
Loading
Personal Weather Stations






























Interactive Weather Map New forecast layout! Learn more

10-Day Weather Forecast

Advertisements
Track Severe Weather on mobile